Daleville, Mississippi
Current Conditions -  °F | °C
As of 6:56 PM on Wednesday 22 Oct 2014 (Local Time) from KNMM Reporting Station
Clear Clear  
Wind Chill: 60°   Ceiling: Unl
Heat Index: 60°   Visibility: 10mi
Dew Point: 46°   Wind: 5mph
Humidity: 60%   Direction: 360°N
Pressure: 30.12"   Gusts: NA
Location:  32.57°N, 88.68°W
Report Text: KNMM 222356Z 36004KT 10SM CLR 16/08 A3012 RMK AO2 SLP210 T01560078 10228 20156 53007 $
Loading
Personal Weather Stations






























Interactive Weather Map
Tropical Storm Tracking
New forecast layout! Learn more

10-Day Weather Forecast

Advertisements
Track Severe Weather on mobile